sensor_id;sensor_type;location;lat;lon;timestamp;P1;durP1;ratioP1;P2;durP2;ratioP2
8333;SDS011;4204;43.004;23.052;2024-03-02T00:02:23;25.38;;;13.80;;
8333;SDS011;4204;43.004;23.052;2024-03-02T00:04:49;26.17;;;13.43;;
8333;SDS011;4204;43.004;23.052;2024-03-02T00:07:14;30.42;;;13.55;;
8333;SDS011;4204;43.004;23.052;2024-03-02T00:09:40;30.60;;;15.27;;
8333;SDS011;4204;43.004;23.052;2024-03-02T00:12:06;30.13;;;15.70;;
8333;SDS011;4204;43.004;23.052;2024-03-02T00:14:31;31.33;;;16.30;;
8333;SDS011;4204;43.004;23.052;2024-03-02T00:16:57;31.30;;;14.77;;
8333;SDS011;4204;43.004;23.052;2024-03-02T00:19:22;31.27;;;16.33;;
8333;SDS011;4204;43.004;23.052;2024-03-02T00:21:48;31.77;;;15.93;;
8333;SDS011;4204;43.004;23.052;2024-03-02T00:24:34;28.65;;;15.43;;
8333;SDS011;4204;43.004;23.052;2024-03-02T00:27:00;29.42;;;15.65;;
8333;SDS011;4204;43.004;23.052;2024-03-02T00:29:28;29.35;;;16.17;;
8333;SDS011;4204;43.004;23.052;2024-03-02T00:31:54;35.50;;;16.58;;
8333;SDS011;4204;43.004;23.052;2024-03-02T00:34:20;32.33;;;16.23;;
8333;SDS011;4204;43.004;23.052;2024-03-02T00:36:46;34.08;;;16.75;;
8333;SDS011;4204;43.004;23.052;2024-03-02T00:39:13;32.17;;;16.15;;
8333;SDS011;4204;43.004;23.052;2024-03-02T00:41:40;31.48;;;15.18;;
8333;SDS011;4204;43.004;23.052;2024-03-02T00:44:09;32.00;;;14.80;;
8333;SDS011;4204;43.004;23.052;2024-03-02T00:46:40;34.13;;;15.90;;
8333;SDS011;4204;43.004;23.052;2024-03-02T00:51:36;35.95;;;16.00;;
8333;SDS011;4204;43.004;23.052;2024-03-02T00:54:05;33.33;;;16.48;;
8333;SDS011;4204;43.004;23.052;2024-03-02T00:56:32;30.98;;;15.63;;
8333;SDS011;4204;43.004;23.052;2024-03-02T00:58:59;36.22;;;15.50;;
8333;SDS011;4204;43.004;23.052;2024-03-02T01:01:25;31.33;;;14.70;;
8333;SDS011;4204;43.004;23.052;2024-03-02T01:03:50;32.17;;;16.00;;
8333;SDS011;4204;43.004;23.052;2024-03-02T01:06:16;30.67;;;16.08;;
8333;SDS011;4204;43.004;23.052;2024-03-02T01:08:42;31.92;;;15.15;;
8333;SDS011;4204;43.004;23.052;2024-03-02T01:11:08;32.50;;;16.23;;
8333;SDS011;4204;43.004;23.052;2024-03-02T01:13:33;29.92;;;15.32;;
8333;SDS011;4204;43.004;23.052;2024-03-02T01:15:59;33.90;;;15.52;;
8333;SDS011;4204;43.004;23.052;2024-03-02T01:18:25;31.70;;;14.30;;
8333;SDS011;4204;43.004;23.052;2024-03-02T01:20:51;35.55;;;15.20;;
8333;SDS011;4204;43.004;23.052;2024-03-02T01:23:20;34.42;;;15.13;;
8333;SDS011;4204;43.004;23.052;2024-03-02T01:25:46;32.45;;;16.55;;
8333;SDS011;4204;43.004;23.052;2024-03-02T01:28:14;29.42;;;14.60;;
8333;SDS011;4204;43.004;23.052;2024-03-02T01:30:40;30.17;;;16.52;;
8333;SDS011;4204;43.004;23.052;2024-03-02T01:33:06;34.67;;;16.20;;
8333;SDS011;4204;43.004;23.052;2024-03-02T01:35:32;30.90;;;14.30;;
8333;SDS011;4204;43.004;23.052;2024-03-02T01:37:57;32.17;;;15.60;;
8333;SDS011;4204;43.004;23.052;2024-03-02T01:40:23;30.80;;;15.32;;
8333;SDS011;4204;43.004;23.052;2024-03-02T01:42:55;33.28;;;15.30;;
8333;SDS011;4204;43.004;23.052;2024-03-02T01:45:20;33.20;;;14.68;;
8333;SDS011;4204;43.004;23.052;2024-03-02T01:47:46;33.00;;;14.52;;
8333;SDS011;4204;43.004;23.052;2024-03-02T01:50:12;36.17;;;14.52;;
8333;SDS011;4204;43.004;23.052;2024-03-02T01:52:38;34.80;;;15.52;;
8333;SDS011;4204;43.004;23.052;2024-03-02T01:55:04;32.75;;;14.70;;
8333;SDS011;4204;43.004;23.052;2024-03-02T01:57:30;33.70;;;14.27;;
8333;SDS011;4204;43.004;23.052;2024-03-02T01:59:56;32.60;;;15.10;;
8333;SDS011;4204;43.004;23.052;2024-03-02T02:02:22;36.25;;;14.75;;
8333;SDS011;4204;43.004;23.052;2024-03-02T02:04:47;33.00;;;15.50;;
8333;SDS011;4204;43.004;23.052;2024-03-02T02:07:13;29.63;;;15.15;;
8333;SDS011;4204;43.004;23.052;2024-03-02T02:09:39;30.25;;;14.70;;
8333;SDS011;4204;43.004;23.052;2024-03-02T02:12:07;35.38;;;14.75;;
8333;SDS011;4204;43.004;23.052;2024-03-02T02:14:32;35.13;;;15.43;;
8333;SDS011;4204;43.004;23.052;2024-03-02T02:16:58;32.00;;;15.18;;
8333;SDS011;4204;43.004;23.052;2024-03-02T02:19:24;29.77;;;14.30;;
8333;SDS011;4204;43.004;23.052;2024-03-02T02:21:50;35.13;;;15.07;;
8333;SDS011;4204;43.004;23.052;2024-03-02T02:24:15;31.63;;;15.33;;
8333;SDS011;4204;43.004;23.052;2024-03-02T02:26:40;31.23;;;14.85;;
8333;SDS011;4204;43.004;23.052;2024-03-02T02:29:06;34.38;;;14.82;;
8333;SDS011;4204;43.004;23.052;2024-03-02T02:31:37;33.33;;;14.55;;
8333;SDS011;4204;43.004;23.052;2024-03-02T02:34:06;31.27;;;14.35;;
8333;SDS011;4204;43.004;23.052;2024-03-02T02:36:33;32.17;;;15.07;;
8333;SDS011;4204;43.004;23.052;2024-03-02T02:39:00;30.80;;;13.25;;
8333;SDS011;4204;43.004;23.052;2024-03-02T02:41:31;38.70;;;13.85;;
8333;SDS011;4204;43.004;23.052;2024-03-02T02:43:57;29.25;;;13.52;;
8333;SDS011;4204;43.004;23.052;2024-03-02T02:46:22;35.60;;;16.38;;
8333;SDS011;4204;43.004;23.052;2024-03-02T02:48:48;30.83;;;13.30;;
8333;SDS011;4204;43.004;23.052;2024-03-02T02:51:13;30.70;;;14.63;;
8333;SDS011;4204;43.004;23.052;2024-03-02T02:53:39;31.20;;;14.48;;
8333;SDS011;4204;43.004;23.052;2024-03-02T02:56:08;28.75;;;15.43;;
8333;SDS011;4204;43.004;23.052;2024-03-02T02:58:34;32.53;;;14.13;;
8333;SDS011;4204;43.004;23.052;2024-03-02T03:01:01;29.98;;;14.43;;
8333;SDS011;4204;43.004;23.052;2024-03-02T03:03:27;35.65;;;14.77;;
8333;SDS011;4204;43.004;23.052;2024-03-02T03:05:52;30.95;;;14.55;;
8333;SDS011;4204;43.004;23.052;2024-03-02T03:08:17;27.27;;;14.32;;
8333;SDS011;4204;43.004;23.052;2024-03-02T03:10:43;31.20;;;14.90;;
8333;SDS011;4204;43.004;23.052;2024-03-02T03:13:08;30.15;;;14.88;;
8333;SDS011;4204;43.004;23.052;2024-03-02T03:15:34;29.45;;;13.68;;
8333;SDS011;4204;43.004;23.052;2024-03-02T03:18:01;28.13;;;14.50;;
8333;SDS011;4204;43.004;23.052;2024-03-02T03:20:30;28.83;;;13.23;;
8333;SDS011;4204;43.004;23.052;2024-03-02T03:22:56;27.10;;;13.05;;
8333;SDS011;4204;43.004;23.052;2024-03-02T03:25:22;31.25;;;13.82;;
8333;SDS011;4204;43.004;23.052;2024-03-02T03:27:47;29.67;;;13.65;;
8333;SDS011;4204;43.004;23.052;2024-03-02T03:30:13;33.25;;;13.98;;
8333;SDS011;4204;43.004;23.052;2024-03-02T03:32:38;33.72;;;14.35;;
8333;SDS011;4204;43.004;23.052;2024-03-02T03:35:04;26.42;;;13.95;;
8333;SDS011;4204;43.004;23.052;2024-03-02T03:37:30;26.30;;;14.30;;
8333;SDS011;4204;43.004;23.052;2024-03-02T03:39:58;31.85;;;15.27;;
8333;SDS011;4204;43.004;23.052;2024-03-02T03:42:24;28.77;;;13.85;;
8333;SDS011;4204;43.004;23.052;2024-03-02T03:44:49;26.15;;;13.00;;
8333;SDS011;4204;43.004;23.052;2024-03-02T03:47:15;29.35;;;13.98;;
8333;SDS011;4204;43.004;23.052;2024-03-02T03:49:40;30.75;;;13.73;;
8333;SDS011;4204;43.004;23.052;2024-03-02T03:52:06;28.88;;;15.98;;
8333;SDS011;4204;43.004;23.052;2024-03-02T03:54:31;27.25;;;14.52;;
8333;SDS011;4204;43.004;23.052;2024-03-02T03:56:57;30.20;;;13.95;;
8333;SDS011;4204;43.004;23.052;2024-03-02T03:59:22;25.42;;;13.13;;
8333;SDS011;4204;43.004;23.052;2024-03-02T04:01:47;29.45;;;14.70;;
8333;SDS011;4204;43.004;23.052;2024-03-02T04:04:13;27.63;;;13.10;;
8333;SDS011;4204;43.004;23.052;2024-03-02T04:06:38;29.02;;;13.75;;
8333;SDS011;4204;43.004;23.052;2024-03-02T04:09:04;24.45;;;14.38;;
8333;SDS011;4204;43.004;23.052;2024-03-02T04:11:29;29.67;;;14.50;;
8333;SDS011;4204;43.004;23.052;2024-03-02T04:13:55;28.23;;;13.25;;
8333;SDS011;4204;43.004;23.052;2024-03-02T04:16:21;26.63;;;13.48;;
8333;SDS011;4204;43.004;23.052;2024-03-02T04:18:46;34.30;;;15.45;;
8333;SDS011;4204;43.004;23.052;2024-03-02T04:21:11;27.08;;;13.60;;
8333;SDS011;4204;43.004;23.052;2024-03-02T04:23:37;30.88;;;14.63;;
8333;SDS011;4204;43.004;23.052;2024-03-02T04:26:02;28.65;;;14.20;;
8333;SDS011;4204;43.004;23.052;2024-03-02T04:28:28;27.48;;;14.23;;
8333;SDS011;4204;43.004;23.052;2024-03-02T04:30:53;33.03;;;14.73;;
8333;SDS011;4204;43.004;23.052;2024-03-02T04:33:19;33.27;;;14.73;;
8333;SDS011;4204;43.004;23.052;2024-03-02T04:35:44;30.23;;;13.70;;
8333;SDS011;4204;43.004;23.052;2024-03-02T04:38:09;29.30;;;14.47;;
8333;SDS011;4204;43.004;23.052;2024-03-02T04:40:35;28.85;;;14.90;;
8333;SDS011;4204;43.004;23.052;2024-03-02T04:43:00;27.88;;;13.27;;
8333;SDS011;4204;43.004;23.052;2024-03-02T04:45:26;29.13;;;14.43;;
8333;SDS011;4204;43.004;23.052;2024-03-02T04:47:51;28.17;;;14.27;;
8333;SDS011;4204;43.004;23.052;2024-03-02T04:50:16;28.23;;;13.57;;
8333;SDS011;4204;43.004;23.052;2024-03-02T04:52:42;23.90;;;12.60;;
8333;SDS011;4204;43.004;23.052;2024-03-02T04:55:07;30.48;;;14.80;;
8333;SDS011;4204;43.004;23.052;2024-03-02T04:57:42;30.00;;;13.65;;
8333;SDS011;4204;43.004;23.052;2024-03-02T05:00:08;30.60;;;13.73;;
8333;SDS011;4204;43.004;23.052;2024-03-02T05:02:34;30.10;;;13.35;;
8333;SDS011;4204;43.004;23.052;2024-03-02T05:05:00;31.73;;;14.20;;
8333;SDS011;4204;43.004;23.052;2024-03-02T05:07:25;29.08;;;12.95;;
8333;SDS011;4204;43.004;23.052;2024-03-02T05:09:51;21.23;;;12.32;;
8333;SDS011;4204;43.004;23.052;2024-03-02T05:12:16;26.45;;;12.60;;
8333;SDS011;4204;43.004;23.052;2024-03-02T05:14:48;26.63;;;11.88;;
8333;SDS011;4204;43.004;23.052;2024-03-02T05:17:13;24.20;;;13.18;;
8333;SDS011;4204;43.004;23.052;2024-03-02T05:19:38;27.77;;;13.52;;
8333;SDS011;4204;43.004;23.052;2024-03-02T05:22:04;28.83;;;13.95;;
8333;SDS011;4204;43.004;23.052;2024-03-02T05:24:29;26.52;;;12.35;;
8333;SDS011;4204;43.004;23.052;2024-03-02T05:26:55;25.88;;;13.68;;
8333;SDS011;4204;43.004;23.052;2024-03-02T05:29:20;25.13;;;13.93;;
8333;SDS011;4204;43.004;23.052;2024-03-02T05:31:46;29.00;;;15.35;;
8333;SDS011;4204;43.004;23.052;2024-03-02T05:34:12;28.10;;;14.23;;
8333;SDS011;4204;43.004;23.052;2024-03-02T05:36:37;32.00;;;14.95;;
8333;SDS011;4204;43.004;23.052;2024-03-02T05:39:04;24.20;;;13.35;;
8333;SDS011;4204;43.004;23.052;2024-03-02T05:41:31;24.95;;;13.63;;
8333;SDS011;4204;43.004;23.052;2024-03-02T05:43:56;30.38;;;13.38;;
8333;SDS011;4204;43.004;23.052;2024-03-02T05:46:22;26.45;;;13.88;;
8333;SDS011;4204;43.004;23.052;2024-03-02T05:48:47;28.35;;;14.77;;
8333;SDS011;4204;43.004;23.052;2024-03-02T05:51:13;21.92;;;12.32;;
8333;SDS011;4204;43.004;23.052;2024-03-02T05:53:38;25.55;;;11.63;;
8333;SDS011;4204;43.004;23.052;2024-03-02T05:56:04;30.30;;;13.45;;
8333;SDS011;4204;43.004;23.052;2024-03-02T05:58:30;25.45;;;12.35;;
8333;SDS011;4204;43.004;23.052;2024-03-02T06:01:18;30.13;;;12.82;;
8333;SDS011;4204;43.004;23.052;2024-03-02T06:03:43;26.23;;;13.02;;
8333;SDS011;4204;43.004;23.052;2024-03-02T06:06:09;31.27;;;14.30;;
8333;SDS011;4204;43.004;23.052;2024-03-02T06:08:35;27.85;;;14.70;;
8333;SDS011;4204;43.004;23.052;2024-03-02T06:11:00;29.45;;;13.70;;
8333;SDS011;4204;43.004;23.052;2024-03-02T06:13:25;27.25;;;14.07;;
8333;SDS011;4204;43.004;23.052;2024-03-02T06:15:51;28.27;;;13.68;;
8333;SDS011;4204;43.004;23.052;2024-03-02T06:18:17;26.83;;;12.27;;
8333;SDS011;4204;43.004;23.052;2024-03-02T06:20:43;22.50;;;12.00;;
8333;SDS011;4204;43.004;23.052;2024-03-02T06:23:08;22.92;;;11.32;;
8333;SDS011;4204;43.004;23.052;2024-03-02T06:25:34;26.02;;;13.20;;
8333;SDS011;4204;43.004;23.052;2024-03-02T06:27:59;25.27;;;13.48;;
8333;SDS011;4204;43.004;23.052;2024-03-02T06:30:25;26.08;;;12.50;;
8333;SDS011;4204;43.004;23.052;2024-03-02T06:32:50;30.75;;;12.73;;
8333;SDS011;4204;43.004;23.052;2024-03-02T06:35:16;21.90;;;11.65;;
8333;SDS011;4204;43.004;23.052;2024-03-02T06:37:41;24.60;;;11.35;;
8333;SDS011;4204;43.004;23.052;2024-03-02T06:40:07;20.23;;;10.77;;
8333;SDS011;4204;43.004;23.052;2024-03-02T06:42:33;23.13;;;12.13;;
8333;SDS011;4204;43.004;23.052;2024-03-02T06:44:59;19.67;;;10.07;;
8333;SDS011;4204;43.004;23.052;2024-03-02T06:47:24;19.80;;;10.43;;
8333;SDS011;4204;43.004;23.052;2024-03-02T06:49:50;19.67;;;10.73;;
8333;SDS011;4204;43.004;23.052;2024-03-02T06:52:16;18.60;;;9.85;;
8333;SDS011;4204;43.004;23.052;2024-03-02T06:54:41;21.83;;;10.80;;
8333;SDS011;4204;43.004;23.052;2024-03-02T06:57:07;21.17;;;11.27;;
8333;SDS011;4204;43.004;23.052;2024-03-02T06:59:32;19.77;;;11.10;;
8333;SDS011;4204;43.004;23.052;2024-03-02T07:01:58;16.73;;;9.23;;
8333;SDS011;4204;43.004;23.052;2024-03-02T07:04:24;18.75;;;10.18;;
8333;SDS011;4204;43.004;23.052;2024-03-02T07:06:49;22.88;;;11.38;;
8333;SDS011;4204;43.004;23.052;2024-03-02T07:09:16;18.05;;;9.55;;
8333;SDS011;4204;43.004;23.052;2024-03-02T07:11:41;14.95;;;8.50;;
8333;SDS011;4204;43.004;23.052;2024-03-02T07:14:08;17.85;;;9.13;;
8333;SDS011;4204;43.004;23.052;2024-03-02T07:16:34;16.00;;;8.55;;
8333;SDS011;4204;43.004;23.052;2024-03-02T07:19:03;17.25;;;9.30;;
8333;SDS011;4204;43.004;23.052;2024-03-02T07:21:28;20.95;;;10.32;;
8333;SDS011;4204;43.004;23.052;2024-03-02T07:23:54;15.77;;;9.38;;
8333;SDS011;4204;43.004;23.052;2024-03-02T07:26:19;16.60;;;9.23;;
8333;SDS011;4204;43.004;23.052;2024-03-02T07:28:47;16.30;;;8.60;;
8333;SDS011;4204;43.004;23.052;2024-03-02T07:31:14;18.83;;;9.80;;
8333;SDS011;4204;43.004;23.052;2024-03-02T07:33:40;17.15;;;8.63;;
8333;SDS011;4204;43.004;23.052;2024-03-02T07:36:06;19.20;;;9.15;;
8333;SDS011;4204;43.004;23.052;2024-03-02T07:38:32;20.65;;;9.95;;
8333;SDS011;4204;43.004;23.052;2024-03-02T07:40:59;17.45;;;9.75;;
8333;SDS011;4204;43.004;23.052;2024-03-02T07:43:25;17.73;;;9.40;;
8333;SDS011;4204;43.004;23.052;2024-03-02T07:45:50;20.75;;;9.00;;
8333;SDS011;4204;43.004;23.052;2024-03-02T07:48:16;18.55;;;9.63;;
8333;SDS011;4204;43.004;23.052;2024-03-02T07:50:41;19.23;;;10.07;;
8333;SDS011;4204;43.004;23.052;2024-03-02T07:53:08;21.17;;;11.15;;
8333;SDS011;4204;43.004;23.052;2024-03-02T07:55:34;21.45;;;12.25;;
8333;SDS011;4204;43.004;23.052;2024-03-02T07:58:02;23.90;;;11.10;;
8333;SDS011;4204;43.004;23.052;2024-03-02T08:00:28;24.52;;;12.88;;
8333;SDS011;4204;43.004;23.052;2024-03-02T08:02:53;23.85;;;13.07;;
8333;SDS011;4204;43.004;23.052;2024-03-02T08:05:20;20.05;;;10.27;;
8333;SDS011;4204;43.004;23.052;2024-03-02T08:07:46;17.85;;;9.85;;
8333;SDS011;4204;43.004;23.052;2024-03-02T08:10:12;23.02;;;11.07;;
8333;SDS011;4204;43.004;23.052;2024-03-02T08:12:38;25.42;;;11.80;;
8333;SDS011;4204;43.004;23.052;2024-03-02T08:15:04;21.27;;;11.98;;
8333;SDS011;4204;43.004;23.052;2024-03-02T08:17:30;23.73;;;13.20;;
8333;SDS011;4204;43.004;23.052;2024-03-02T08:19:55;41.92;;;26.48;;
8333;SDS011;4204;43.004;23.052;2024-03-02T08:22:21;22.42;;;13.13;;
8333;SDS011;4204;43.004;23.052;2024-03-02T08:24:48;30.25;;;15.65;;
8333;SDS011;4204;43.004;23.052;2024-03-02T08:27:13;22.63;;;13.88;;
8333;SDS011;4204;43.004;23.052;2024-03-02T08:29:39;22.42;;;13.30;;
8333;SDS011;4204;43.004;23.052;2024-03-02T08:32:06;24.42;;;14.43;;
8333;SDS011;4204;43.004;23.052;2024-03-02T08:34:32;21.15;;;11.93;;
8333;SDS011;4204;43.004;23.052;2024-03-02T08:36:58;25.27;;;14.75;;
8333;SDS011;4204;43.004;23.052;2024-03-02T08:39:24;26.00;;;15.85;;
8333;SDS011;4204;43.004;23.052;2024-03-02T08:41:49;25.08;;;14.98;;
8333;SDS011;4204;43.004;23.052;2024-03-02T08:44:15;20.40;;;11.75;;
8333;SDS011;4204;43.004;23.052;2024-03-02T08:46:41;19.95;;;11.38;;
8333;SDS011;4204;43.004;23.052;2024-03-02T08:49:07;19.90;;;11.25;;
8333;SDS011;4204;43.004;23.052;2024-03-02T08:51:33;19.85;;;10.70;;
8333;SDS011;4204;43.004;23.052;2024-03-02T08:53:59;21.52;;;12.23;;
8333;SDS011;4204;43.004;23.052;2024-03-02T08:56:26;19.17;;;10.93;;
8333;SDS011;4204;43.004;23.052;2024-03-02T08:58:51;20.02;;;11.65;;
8333;SDS011;4204;43.004;23.052;2024-03-02T09:01:18;17.83;;;10.52;;
8333;SDS011;4204;43.004;23.052;2024-03-02T09:03:44;18.90;;;10.38;;
8333;SDS011;4204;43.004;23.052;2024-03-02T09:06:11;19.20;;;9.52;;
8333;SDS011;4204;43.004;23.052;2024-03-02T09:08:36;16.20;;;8.88;;
8333;SDS011;4204;43.004;23.052;2024-03-02T09:11:03;15.25;;;8.82;;
8333;SDS011;4204;43.004;23.052;2024-03-02T09:13:30;17.70;;;9.30;;
8333;SDS011;4204;43.004;23.052;2024-03-02T09:15:56;15.90;;;9.63;;
8333;SDS011;4204;43.004;23.052;2024-03-02T09:18:22;16.35;;;9.13;;
8333;SDS011;4204;43.004;23.052;2024-03-02T09:20:47;19.42;;;9.88;;
8333;SDS011;4204;43.004;23.052;2024-03-02T09:23:13;15.88;;;8.50;;
8333;SDS011;4204;43.004;23.052;2024-03-02T09:25:38;16.58;;;8.68;;
8333;SDS011;4204;43.004;23.052;2024-03-02T09:28:04;16.63;;;8.98;;
8333;SDS011;4204;43.004;23.052;2024-03-02T09:30:29;19.88;;;10.00;;
8333;SDS011;4204;43.004;23.052;2024-03-02T09:32:55;18.25;;;10.65;;
8333;SDS011;4204;43.004;23.052;2024-03-02T09:35:20;18.50;;;10.32;;
8333;SDS011;4204;43.004;23.052;2024-03-02T09:37:46;15.35;;;8.32;;
8333;SDS011;4204;43.004;23.052;2024-03-02T09:40:11;17.52;;;9.75;;
8333;SDS011;4204;43.004;23.052;2024-03-02T09:42:38;19.90;;;9.75;;
8333;SDS011;4204;43.004;23.052;2024-03-02T09:45:05;17.42;;;9.35;;
8333;SDS011;4204;43.004;23.052;2024-03-02T09:47:31;15.88;;;9.13;;
8333;SDS011;4204;43.004;23.052;2024-03-02T09:49:56;20.40;;;9.02;;
8333;SDS011;4204;43.004;23.052;2024-03-02T09:52:24;18.05;;;9.05;;
8333;SDS011;4204;43.004;23.052;2024-03-02T09:54:50;17.67;;;9.70;;
8333;SDS011;4204;43.004;23.052;2024-03-02T09:57:16;18.58;;;9.30;;
8333;SDS011;4204;43.004;23.052;2024-03-02T09:59:42;16.60;;;9.48;;
8333;SDS011;4204;43.004;23.052;2024-03-02T10:02:07;17.88;;;9.20;;
8333;SDS011;4204;43.004;23.052;2024-03-02T10:04:33;20.95;;;10.82;;
8333;SDS011;4204;43.004;23.052;2024-03-02T10:07:10;21.50;;;9.93;;
8333;SDS011;4204;43.004;23.052;2024-03-02T10:09:40;25.45;;;11.77;;
8333;SDS011;4204;43.004;23.052;2024-03-02T10:12:10;115.85;;;45.65;;
8333;SDS011;4204;43.004;23.052;2024-03-02T10:14:37;93.50;;;35.53;;
8333;SDS011;4204;43.004;23.052;2024-03-02T10:17:03;35.78;;;17.83;;
8333;SDS011;4204;43.004;23.052;2024-03-02T10:19:29;32.30;;;16.30;;
8333;SDS011;4204;43.004;23.052;2024-03-02T10:21:58;27.80;;;15.43;;
8333;SDS011;4204;43.004;23.052;2024-03-02T10:24:24;30.45;;;17.85;;
8333;SDS011;4204;43.004;23.052;2024-03-02T10:26:50;33.40;;;17.58;;
8333;SDS011;4204;43.004;23.052;2024-03-02T10:29:17;33.45;;;18.63;;
8333;SDS011;4204;43.004;23.052;2024-03-02T10:31:44;32.53;;;17.23;;
8333;SDS011;4204;43.004;23.052;2024-03-02T10:34:13;28.45;;;14.82;;
8333;SDS011;4204;43.004;23.052;2024-03-02T10:36:42;25.25;;;14.77;;
8333;SDS011;4204;43.004;23.052;2024-03-02T10:39:09;29.83;;;14.90;;
8333;SDS011;4204;43.004;23.052;2024-03-02T10:41:35;24.63;;;13.30;;
8333;SDS011;4204;43.004;23.052;2024-03-02T10:44:05;22.85;;;12.02;;
8333;SDS011;4204;43.004;23.052;2024-03-02T10:46:32;24.20;;;11.73;;
8333;SDS011;4204;43.004;23.052;2024-03-02T10:48:59;20.25;;;10.85;;
8333;SDS011;4204;43.004;23.052;2024-03-02T10:51:26;22.35;;;11.27;;
8333;SDS011;4204;43.004;23.052;2024-03-02T10:53:54;22.65;;;12.05;;
8333;SDS011;4204;43.004;23.052;2024-03-02T10:56:21;27.10;;;13.20;;
8333;SDS011;4204;43.004;23.052;2024-03-02T10:59:43;24.75;;;12.48;;
8333;SDS011;4204;43.004;23.052;2024-03-02T11:01:52;24.50;;;12.50;;
8333;SDS011;4204;43.004;23.052;2024-03-02T11:04:24;21.52;;;12.05;;
8333;SDS011;4204;43.004;23.052;2024-03-02T11:06:51;20.63;;;10.95;;
8333;SDS011;4204;43.004;23.052;2024-03-02T11:09:20;21.77;;;12.38;;
8333;SDS011;4204;43.004;23.052;2024-03-02T11:11:54;22.90;;;10.35;;
8333;SDS011;4204;43.004;23.052;2024-03-02T11:14:41;21.25;;;12.55;;
8333;SDS011;4204;43.004;23.052;2024-03-02T11:17:11;24.23;;;12.05;;
8333;SDS011;4204;43.004;23.052;2024-03-02T11:19:40;22.80;;;12.18;;
8333;SDS011;4204;43.004;23.052;2024-03-02T11:22:06;23.85;;;13.30;;
8333;SDS011;4204;43.004;23.052;2024-03-02T11:24:34;22.42;;;10.90;;
8333;SDS011;4204;43.004;23.052;2024-03-02T11:27:00;22.67;;;12.25;;
8333;SDS011;4204;43.004;23.052;2024-03-02T11:32:04;26.02;;;12.00;;
8333;SDS011;4204;43.004;23.052;2024-03-02T11:34:35;22.05;;;11.88;;
8333;SDS011;4204;43.004;23.052;2024-03-02T11:37:02;24.02;;;12.18;;
8333;SDS011;4204;43.004;23.052;2024-03-02T11:39:28;21.15;;;10.32;;
8333;SDS011;4204;43.004;23.052;2024-03-02T11:41:55;18.77;;;10.73;;
8333;SDS011;4204;43.004;23.052;2024-03-02T11:44:22;20.15;;;9.70;;
8333;SDS011;4204;43.004;23.052;2024-03-02T11:46:58;18.27;;;10.75;;
8333;SDS011;4204;43.004;23.052;2024-03-02T11:52:11;22.77;;;12.23;;
8333;SDS011;4204;43.004;23.052;2024-03-02T11:54:38;19.30;;;10.32;;
8333;SDS011;4204;43.004;23.052;2024-03-02T11:57:08;20.25;;;10.43;;
8333;SDS011;4204;43.004;23.052;2024-03-02T11:59:34;21.58;;;11.13;;
8333;SDS011;4204;43.004;23.052;2024-03-02T12:02:00;16.95;;;9.98;;
8333;SDS011;4204;43.004;23.052;2024-03-02T12:04:25;20.38;;;11.38;;
8333;SDS011;4204;43.004;23.052;2024-03-02T12:06:55;17.00;;;8.95;;
8333;SDS011;4204;43.004;23.052;2024-03-02T12:09:27;17.88;;;10.13;;
8333;SDS011;4204;43.004;23.052;2024-03-02T12:12:11;17.23;;;8.98;;
8333;SDS011;4204;43.004;23.052;2024-03-02T12:14:37;19.95;;;10.45;;
8333;SDS011;4204;43.004;23.052;2024-03-02T12:17:06;19.33;;;10.23;;
8333;SDS011;4204;43.004;23.052;2024-03-02T12:19:32;20.85;;;10.85;;
8333;SDS011;4204;43.004;23.052;2024-03-02T12:21:59;22.25;;;11.20;;
8333;SDS011;4204;43.004;23.052;2024-03-02T12:24:28;17.83;;;9.73;;
8333;SDS011;4204;43.004;23.052;2024-03-02T12:26:54;19.98;;;10.25;;
8333;SDS011;4204;43.004;23.052;2024-03-02T12:29:20;17.77;;;10.13;;
8333;SDS011;4204;43.004;23.052;2024-03-02T12:31:52;18.08;;;9.10;;
8333;SDS011;4204;43.004;23.052;2024-03-02T12:34:18;15.52;;;9.45;;
8333;SDS011;4204;43.004;23.052;2024-03-02T12:36:45;17.65;;;9.95;;
8333;SDS011;4204;43.004;23.052;2024-03-02T12:39:13;17.70;;;9.55;;
8333;SDS011;4204;43.004;23.052;2024-03-02T12:41:38;17.42;;;9.57;;
8333;SDS011;4204;43.004;23.052;2024-03-02T12:44:04;20.75;;;10.23;;
8333;SDS011;4204;43.004;23.052;2024-03-02T12:46:31;19.77;;;11.45;;
8333;SDS011;4204;43.004;23.052;2024-03-02T12:48:57;21.15;;;11.50;;
8333;SDS011;4204;43.004;23.052;2024-03-02T12:51:32;18.23;;;9.82;;
8333;SDS011;4204;43.004;23.052;2024-03-02T12:53:57;17.95;;;9.40;;
8333;SDS011;4204;43.004;23.052;2024-03-02T12:56:24;17.67;;;9.85;;
8333;SDS011;4204;43.004;23.052;2024-03-02T12:58:54;24.17;;;13.02;;
8333;SDS011;4204;43.004;23.052;2024-03-02T13:01:20;28.08;;;15.73;;
8333;SDS011;4204;43.004;23.052;2024-03-02T13:03:48;29.40;;;16.70;;
8333;SDS011;4204;43.004;23.052;2024-03-02T13:06:16;21.17;;;12.73;;
8333;SDS011;4204;43.004;23.052;2024-03-02T13:08:43;18.13;;;9.48;;
8333;SDS011;4204;43.004;23.052;2024-03-02T13:11:10;14.27;;;8.27;;
8333;SDS011;4204;43.004;23.052;2024-03-02T13:13:35;15.48;;;9.15;;
8333;SDS011;4204;43.004;23.052;2024-03-02T13:16:01;19.13;;;9.45;;
8333;SDS011;4204;43.004;23.052;2024-03-02T13:18:28;17.90;;;9.68;;
8333;SDS011;4204;43.004;23.052;2024-03-02T13:20:54;18.85;;;10.38;;
8333;SDS011;4204;43.004;23.052;2024-03-02T13:23:21;21.13;;;11.70;;
8333;SDS011;4204;43.004;23.052;2024-03-02T13:25:46;21.85;;;11.13;;
8333;SDS011;4204;43.004;23.052;2024-03-02T13:28:12;19.75;;;11.35;;
8333;SDS011;4204;43.004;23.052;2024-03-02T13:30:38;20.27;;;13.50;;
8333;SDS011;4204;43.004;23.052;2024-03-02T13:33:03;19.00;;;12.93;;
8333;SDS011;4204;43.004;23.052;2024-03-02T13:35:29;43.13;;;28.77;;
8333;SDS011;4204;43.004;23.052;2024-03-02T13:37:55;43.85;;;32.85;;
8333;SDS011;4204;43.004;23.052;2024-03-02T13:40:22;18.00;;;10.57;;
8333;SDS011;4204;43.004;23.052;2024-03-02T13:42:48;13.38;;;8.77;;
8333;SDS011;4204;43.004;23.052;2024-03-02T13:45:16;18.58;;;10.68;;
8333;SDS011;4204;43.004;23.052;2024-03-02T13:47:43;19.60;;;12.45;;
8333;SDS011;4204;43.004;23.052;2024-03-02T13:50:09;31.02;;;19.10;;
8333;SDS011;4204;43.004;23.052;2024-03-02T13:52:34;25.60;;;14.13;;
8333;SDS011;4204;43.004;23.052;2024-03-02T13:55:00;24.13;;;14.65;;
8333;SDS011;4204;43.004;23.052;2024-03-02T13:57:25;20.58;;;13.68;;
8333;SDS011;4204;43.004;23.052;2024-03-02T13:59:51;23.45;;;16.90;;
8333;SDS011;4204;43.004;23.052;2024-03-02T14:02:17;22.60;;;14.73;;
8333;SDS011;4204;43.004;23.052;2024-03-02T14:04:43;25.25;;;12.75;;
8333;SDS011;4204;43.004;23.052;2024-03-02T14:07:08;20.40;;;10.73;;
8333;SDS011;4204;43.004;23.052;2024-03-02T14:09:35;25.48;;;15.40;;
8333;SDS011;4204;43.004;23.052;2024-03-02T14:12:01;22.52;;;13.75;;
8333;SDS011;4204;43.004;23.052;2024-03-02T14:14:28;18.83;;;11.13;;
8333;SDS011;4204;43.004;23.052;2024-03-02T14:16:54;16.58;;;10.18;;
8333;SDS011;4204;43.004;23.052;2024-03-02T14:19:29;31.00;;;16.70;;
8333;SDS011;4204;43.004;23.052;2024-03-02T14:21:56;36.30;;;19.02;;
8333;SDS011;4204;43.004;23.052;2024-03-02T14:24:21;34.22;;;19.15;;
8333;SDS011;4204;43.004;23.052;2024-03-02T14:26:51;39.33;;;21.00;;
8333;SDS011;4204;43.004;23.052;2024-03-02T14:29:18;38.47;;;20.00;;
8333;SDS011;4204;43.004;23.052;2024-03-02T14:31:43;28.33;;;15.77;;
8333;SDS011;4204;43.004;23.052;2024-03-02T14:34:13;16.40;;;8.35;;
8333;SDS011;4204;43.004;23.052;2024-03-02T14:36:40;14.25;;;8.88;;
8333;SDS011;4204;43.004;23.052;2024-03-02T14:39:08;15.50;;;9.55;;
8333;SDS011;4204;43.004;23.052;2024-03-02T14:41:35;14.32;;;8.27;;